sensor_id;sensor_type;location;lat;lon;timestamp;pressure;altitude;pressure_sealevel;temperature
24201;BMP280;2801;50.972;7.856;2024-03-23T00:55:34;96745.63;;;8.16
24201;BMP280;2801;50.972;7.856;2024-03-23T00:58:01;96735.78;;;8.08
24201;BMP280;2801;50.972;7.856;2024-03-23T01:00:28;96740.00;;;8.09
24201;BMP280;2801;50.972;7.856;2024-03-23T01:02:56;96737.00;;;8.10
24201;BMP280;2801;50.972;7.856;2024-03-23T01:05:22;96751.78;;;8.08
24201;BMP280;2801;50.972;7.856;2024-03-23T01:07:48;96756.25;;;7.95
24201;BMP280;2801;50.972;7.856;2024-03-23T01:10:15;96757.41;;;7.86
24201;BMP280;2801;50.972;7.856;2024-03-23T01:12:41;96755.88;;;7.76
24201;BMP280;2801;50.972;7.856;2024-03-23T01:15:08;96761.13;;;7.64
24201;BMP280;2801;50.972;7.856;2024-03-23T01:17:34;96758.19;;;7.57
24201;BMP280;2801;50.972;7.856;2024-03-23T01:20:00;96764.16;;;7.54
24201;BMP280;2801;50.972;7.856;2024-03-23T01:22:27;96757.75;;;7.46
24201;BMP280;2801;50.972;7.856;2024-03-23T01:24:53;96757.28;;;7.44
24201;BMP280;2801;50.972;7.856;2024-03-23T01:27:19;96762.59;;;7.44
24201;BMP280;2801;50.972;7.856;2024-03-23T01:29:45;96764.97;;;7.46
24201;BMP280;2801;50.972;7.856;2024-03-23T01:32:12;96760.91;;;7.40
24201;BMP280;2801;50.972;7.856;2024-03-23T01:34:38;96752.91;;;7.40
24201;BMP280;2801;50.972;7.856;2024-03-23T01:37:04;96749.78;;;7.38
24201;BMP280;2801;50.972;7.856;2024-03-23T01:39:30;96742.25;;;7.40
24201;BMP280;2801;50.972;7.856;2024-03-23T01:41:56;96742.41;;;7.35
24201;BMP280;2801;50.972;7.856;2024-03-23T01:44:23;96740.84;;;7.34
24201;BMP280;2801;50.972;7.856;2024-03-23T01:46:49;96744.31;;;7.34
24201;BMP280;2801;50.972;7.856;2024-03-23T01:49:16;96743.69;;;7.37
24201;BMP280;2801;50.972;7.856;2024-03-23T01:51:42;96738.38;;;7.29
24201;BMP280;2801;50.972;7.856;2024-03-23T01:54:09;96744.34;;;7.26
24201;BMP280;2801;50.972;7.856;2024-03-23T01:56:36;96737.44;;;7.25
24201;BMP280;2801;50.972;7.856;2024-03-23T01:59:03;96745.28;;;7.21
24201;BMP280;2801;50.972;7.856;2024-03-23T02:01:32;96733.25;;;7.15
24201;BMP280;2801;50.972;7.856;2024-03-23T02:04:02;96737.66;;;7.11
24201;BMP280;2801;50.972;7.856;2024-03-23T02:06:28;96728.72;;;7.07
24201;BMP280;2801;50.972;7.856;2024-03-23T02:08:55;96739.22;;;7.04
24201;BMP280;2801;50.972;7.856;2024-03-23T02:11:22;96722.63;;;6.98
24201;BMP280;2801;50.972;7.856;2024-03-23T02:13:48;96723.72;;;6.97
24201;BMP280;2801;50.972;7.856;2024-03-23T02:16:14;96726.06;;;6.99
24201;BMP280;2801;50.972;7.856;2024-03-23T02:18:40;96713.38;;;6.96
24201;BMP280;2801;50.972;7.856;2024-03-23T02:21:07;96708.53;;;6.98
24201;BMP280;2801;50.972;7.856;2024-03-23T02:23:33;96707.88;;;7.01
24201;BMP280;2801;50.972;7.856;2024-03-23T02:25:59;96698.31;;;7.00
24201;BMP280;2801;50.972;7.856;2024-03-23T02:28:25;96706.00;;;7.01
24201;BMP280;2801;50.972;7.856;2024-03-23T02:30:52;96704.44;;;6.92
24201;BMP280;2801;50.972;7.856;2024-03-23T02:33:18;96691.13;;;6.92
24201;BMP280;2801;50.972;7.856;2024-03-23T02:35:45;96689.25;;;6.92
24201;BMP280;2801;50.972;7.856;2024-03-23T02:38:11;96689.72;;;6.94
24201;BMP280;2801;50.972;7.856;2024-03-23T02:40:38;96690.03;;;6.93
24201;BMP280;2801;50.972;7.856;2024-03-23T02:43:04;96691.63;;;6.94
24201;BMP280;2801;50.972;7.856;2024-03-23T02:45:31;96681.88;;;6.98
24201;BMP280;2801;50.972;7.856;2024-03-23T02:47:57;96686.41;;;6.97
24201;BMP280;2801;50.972;7.856;2024-03-23T02:50:23;96681.72;;;6.94
24201;BMP280;2801;50.972;7.856;2024-03-23T02:52:50;96688.03;;;6.90
24201;BMP280;2801;50.972;7.856;2024-03-23T02:55:16;96693.34;;;6.90
24201;BMP280;2801;50.972;7.856;2024-03-23T02:57:42;96699.00;;;6.88
24201;BMP280;2801;50.972;7.856;2024-03-23T03:00:09;96702.78;;;6.79
24201;BMP280;2801;50.972;7.856;2024-03-23T03:02:37;96700.56;;;6.72
24201;BMP280;2801;50.972;7.856;2024-03-23T03:05:05;96697.78;;;6.69
24201;BMP280;2801;50.972;7.856;2024-03-23T03:07:32;96697.16;;;6.63
24201;BMP280;2801;50.972;7.856;2024-03-23T03:09:58;96689.34;;;6.58
24201;BMP280;2801;50.972;7.856;2024-03-23T03:12:24;96686.06;;;6.53
24201;BMP280;2801;50.972;7.856;2024-03-23T03:14:50;96686.69;;;6.50
24201;BMP280;2801;50.972;7.856;2024-03-23T03:17:16;96690.59;;;6.52
24201;BMP280;2801;50.972;7.856;2024-03-23T03:19:42;96696.22;;;6.51
24201;BMP280;2801;50.972;7.856;2024-03-23T03:22:09;96687.78;;;6.49
24201;BMP280;2801;50.972;7.856;2024-03-23T03:24:35;96690.44;;;6.40
24201;BMP280;2801;50.972;7.856;2024-03-23T03:27:01;96706.72;;;6.39
24201;BMP280;2801;50.972;7.856;2024-03-23T03:29:29;96711.41;;;6.33
24201;BMP280;2801;50.972;7.856;2024-03-23T03:32:02;96703.28;;;6.30
24201;BMP280;2801;50.972;7.856;2024-03-23T03:34:29;96708.44;;;6.26
24201;BMP280;2801;50.972;7.856;2024-03-23T03:36:57;96709.53;;;6.17
24201;BMP280;2801;50.972;7.856;2024-03-23T03:39:24;96699.06;;;6.12
24201;BMP280;2801;50.972;7.856;2024-03-23T03:41:50;96697.16;;;5.95
24201;BMP280;2801;50.972;7.856;2024-03-23T03:44:17;96718.91;;;5.89
24201;BMP280;2801;50.972;7.856;2024-03-23T03:46:43;96722.00;;;5.82
24201;BMP280;2801;50.972;7.856;2024-03-23T03:49:09;96707.72;;;5.70
24201;BMP280;2801;50.972;7.856;2024-03-23T03:51:36;96709.53;;;5.52
24201;BMP280;2801;50.972;7.856;2024-03-23T03:54:02;96720.16;;;5.44
24201;BMP280;2801;50.972;7.856;2024-03-23T03:56:28;96727.94;;;5.40
24201;BMP280;2801;50.972;7.856;2024-03-23T03:58:54;96732.81;;;5.38
24201;BMP280;2801;50.972;7.856;2024-03-23T04:01:20;96730.31;;;5.42
24201;BMP280;2801;50.972;7.856;2024-03-23T04:03:46;96739.53;;;5.36
24201;BMP280;2801;50.972;7.856;2024-03-23T04:06:19;96749.16;;;5.23
24201;BMP280;2801;50.972;7.856;2024-03-23T04:08:45;96751.91;;;5.18
24201;BMP280;2801;50.972;7.856;2024-03-23T04:11:12;96759.88;;;5.10
24201;BMP280;2801;50.972;7.856;2024-03-23T04:13:38;96754.34;;;5.06
24201;BMP280;2801;50.972;7.856;2024-03-23T04:16:07;96750.75;;;5.02
24201;BMP280;2801;50.972;7.856;2024-03-23T04:18:35;96737.91;;;4.96
24201;BMP280;2801;50.972;7.856;2024-03-23T04:21:01;96740.72;;;4.99
24201;BMP280;2801;50.972;7.856;2024-03-23T04:23:27;96735.91;;;5.01
24201;BMP280;2801;50.972;7.856;2024-03-23T04:25:54;96738.41;;;4.98
24201;BMP280;2801;50.972;7.856;2024-03-23T04:28:20;96737.59;;;4.97
24201;BMP280;2801;50.972;7.856;2024-03-23T04:30:47;96745.72;;;5.01
24201;BMP280;2801;50.972;7.856;2024-03-23T04:33:13;96739.16;;;4.98
24201;BMP280;2801;50.972;7.856;2024-03-23T04:35:39;96744.13;;;4.91
24201;BMP280;2801;50.972;7.856;2024-03-23T04:38:05;96751.91;;;4.88
24201;BMP280;2801;50.972;7.856;2024-03-23T04:40:32;96750.75;;;4.80
24201;BMP280;2801;50.972;7.856;2024-03-23T04:42:58;96755.91;;;4.77
24201;BMP280;2801;50.972;7.856;2024-03-23T04:45:26;96767.13;;;4.74
24201;BMP280;2801;50.972;7.856;2024-03-23T04:47:53;96763.34;;;4.66
24201;BMP280;2801;50.972;7.856;2024-03-23T04:50:19;96771.41;;;4.61
24201;BMP280;2801;50.972;7.856;2024-03-23T04:52:45;96779.00;;;4.54
24201;BMP280;2801;50.972;7.856;2024-03-23T04:55:11;96776.28;;;4.46
24201;BMP280;2801;50.972;7.856;2024-03-23T04:57:38;96775.31;;;4.42
24201;BMP280;2801;50.972;7.856;2024-03-23T05:00:05;96786.69;;;4.42
24201;BMP280;2801;50.972;7.856;2024-03-23T05:02:44;96775.31;;;4.42
24201;BMP280;2801;50.972;7.856;2024-03-23T05:05:11;96769.22;;;4.41
24201;BMP280;2801;50.972;7.856;2024-03-23T05:07:37;96771.19;;;4.36
24201;BMP280;2801;50.972;7.856;2024-03-23T05:10:04;96776.22;;;4.37
24201;BMP280;2801;50.972;7.856;2024-03-23T05:12:30;96774.94;;;4.35
24201;BMP280;2801;50.972;7.856;2024-03-23T05:14:58;96778.06;;;4.37
24201;BMP280;2801;50.972;7.856;2024-03-23T05:17:24;96786.69;;;4.42
24201;BMP280;2801;50.972;7.856;2024-03-23T05:19:50;96782.78;;;4.40
24201;BMP280;2801;50.972;7.856;2024-03-23T05:22:17;96790.44;;;4.41
24201;BMP280;2801;50.972;7.856;2024-03-23T05:24:45;96792.50;;;4.44
24201;BMP280;2801;50.972;7.856;2024-03-23T05:27:11;96791.91;;;4.47
24201;BMP280;2801;50.972;7.856;2024-03-23T05:29:37;96789.25;;;4.47
24201;BMP280;2801;50.972;7.856;2024-03-23T05:32:04;96790.63;;;4.45
24201;BMP280;2801;50.972;7.856;2024-03-23T05:34:30;96788.75;;;4.45
24201;BMP280;2801;50.972;7.856;2024-03-23T05:36:56;96782.66;;;4.45
24201;BMP280;2801;50.972;7.856;2024-03-23T05:39:22;96789.25;;;4.47
24201;BMP280;2801;50.972;7.856;2024-03-23T05:41:48;96788.47;;;4.47
24201;BMP280;2801;50.972;7.856;2024-03-23T05:44:14;96791.91;;;4.47
24201;BMP280;2801;50.972;7.856;2024-03-23T05:46:41;96787.88;;;4.50
24201;BMP280;2801;50.972;7.856;2024-03-23T05:49:08;96800.06;;;4.51
24201;BMP280;2801;50.972;7.856;2024-03-23T05:51:35;96797.69;;;4.49
24201;BMP280;2801;50.972;7.856;2024-03-23T05:54:01;96790.69;;;4.53
24201;BMP280;2801;50.972;7.856;2024-03-23T05:56:27;96794.16;;;4.54
24201;BMP280;2801;50.972;7.856;2024-03-23T05:58:53;96786.91;;;4.46
24201;BMP280;2801;50.972;7.856;2024-03-23T06:01:19;96787.97;;;4.45
24201;BMP280;2801;50.972;7.856;2024-03-23T06:03:46;96792.88;;;4.51
24201;BMP280;2801;50.972;7.856;2024-03-23T06:06:12;96791.97;;;4.56
24201;BMP280;2801;50.972;7.856;2024-03-23T06:08:39;96800.00;;;4.64
24201;BMP280;2801;50.972;7.856;2024-03-23T06:11:05;96797.72;;;4.71
24201;BMP280;2801;50.972;7.856;2024-03-23T06:13:33;96808.03;;;4.73
24201;BMP280;2801;50.972;7.856;2024-03-23T06:16:01;96810.88;;;4.76
24201;BMP280;2801;50.972;7.856;2024-03-23T06:18:27;96815.13;;;4.77
24201;BMP280;2801;50.972;7.856;2024-03-23T06:20:54;96816.19;;;4.76
24201;BMP280;2801;50.972;7.856;2024-03-23T06:23:20;96816.69;;;4.78
24201;BMP280;2801;50.972;7.856;2024-03-23T06:25:46;96808.41;;;4.80
24201;BMP280;2801;50.972;7.856;2024-03-23T06:28:13;96798.16;;;4.87
24201;BMP280;2801;50.972;7.856;2024-03-23T06:30:40;96799.41;;;4.89
24201;BMP280;2801;50.972;7.856;2024-03-23T06:33:06;96800.19;;;4.90
24201;BMP280;2801;50.972;7.856;2024-03-23T06:35:32;96809.63;;;4.96
24201;BMP280;2801;50.972;7.856;2024-03-23T06:37:58;96810.28;;;5.01
24201;BMP280;2801;50.972;7.856;2024-03-23T06:40:24;96809.84;;;5.08
24201;BMP280;2801;50.972;7.856;2024-03-23T06:42:51;96808.34;;;5.15
24201;BMP280;2801;50.972;7.856;2024-03-23T06:45:18;96812.56;;;5.16
24201;BMP280;2801;50.972;7.856;2024-03-23T06:47:49;96813.81;;;5.19
24201;BMP280;2801;50.972;7.856;2024-03-23T06:50:16;96817.75;;;5.21
24201;BMP280;2801;50.972;7.856;2024-03-23T06:52:43;96823.66;;;5.18
24201;BMP280;2801;50.972;7.856;2024-03-23T06:55:09;96817.72;;;5.13
24201;BMP280;2801;50.972;7.856;2024-03-23T06:57:40;96821.31;;;5.17
24201;BMP280;2801;50.972;7.856;2024-03-23T07:00:06;96824.94;;;5.21
24201;BMP280;2801;50.972;7.856;2024-03-23T07:02:36;96830.25;;;5.21
24201;BMP280;2801;50.972;7.856;2024-03-23T07:05:02;96830.13;;;5.26
24201;BMP280;2801;50.972;7.856;2024-03-23T07:07:29;96831.81;;;5.22
24201;BMP280;2801;50.972;7.856;2024-03-23T07:09:56;96832.13;;;5.20
24201;BMP280;2801;50.972;7.856;2024-03-23T07:12:22;96833.56;;;5.26
24201;BMP280;2801;50.972;7.856;2024-03-23T07:14:48;96841.22;;;5.28
24201;BMP280;2801;50.972;7.856;2024-03-23T07:17:14;96831.97;;;5.25
24201;BMP280;2801;50.972;7.856;2024-03-23T07:19:41;96845.28;;;5.25
24201;BMP280;2801;50.972;7.856;2024-03-23T07:22:07;96843.72;;;5.24
24201;BMP280;2801;50.972;7.856;2024-03-23T07:24:33;96834.47;;;5.22
24201;BMP280;2801;50.972;7.856;2024-03-23T07:26:59;96841.84;;;5.25
24201;BMP280;2801;50.972;7.856;2024-03-23T07:29:26;96842.44;;;5.22
24201;BMP280;2801;50.972;7.856;2024-03-23T07:31:52;96846.53;;;5.28
24201;BMP280;2801;50.972;7.856;2024-03-23T07:34:18;96845.53;;;5.37
24201;BMP280;2801;50.972;7.856;2024-03-23T07:36:44;96849.00;;;5.46
24201;BMP280;2801;50.972;7.856;2024-03-23T07:39:10;96865.31;;;5.53
24201;BMP280;2801;50.972;7.856;2024-03-23T07:41:37;96866.56;;;5.56
24201;BMP280;2801;50.972;7.856;2024-03-23T07:44:03;96853.44;;;5.59
24201;BMP280;2801;50.972;7.856;2024-03-23T07:46:30;96857.38;;;5.62
24201;BMP280;2801;50.972;7.856;2024-03-23T07:48:57;96860.66;;;5.67
24201;BMP280;2801;50.972;7.856;2024-03-23T07:51:23;96862.59;;;5.75
24201;BMP280;2801;50.972;7.856;2024-03-23T07:53:49;96861.28;;;5.86
24201;BMP280;2801;50.972;7.856;2024-03-23T07:56:16;96865.59;;;6.13
24201;BMP280;2801;50.972;7.856;2024-03-23T07:58:44;96866.56;;;6.25
24201;BMP280;2801;50.972;7.856;2024-03-23T08:01:14;96858.19;;;6.66
24201;BMP280;2801;50.972;7.856;2024-03-23T08:03:42;96865.88;;;7.18
24201;BMP280;2801;50.972;7.856;2024-03-23T08:08:40;96870.91;;;8.29
24201;BMP280;2801;50.972;7.856;2024-03-23T08:11:07;96860.34;;;8.41
24201;BMP280;2801;50.972;7.856;2024-03-23T08:13:34;96869.03;;;8.30
24201;BMP280;2801;50.972;7.856;2024-03-23T08:16:03;96860.56;;;8.19
24201;BMP280;2801;50.972;7.856;2024-03-23T08:18:31;96874.03;;;8.60
24201;BMP280;2801;50.972;7.856;2024-03-23T08:21:01;96863.25;;;9.63
24201;BMP280;2801;50.972;7.856;2024-03-23T08:23:29;96875.84;;;9.50
24201;BMP280;2801;50.972;7.856;2024-03-23T08:26:00;96870.97;;;9.76
24201;BMP280;2801;50.972;7.856;2024-03-23T08:28:28;96869.56;;;9.79
24201;BMP280;2801;50.972;7.856;2024-03-23T08:30:56;96857.34;;;10.38
24201;BMP280;2801;50.972;7.856;2024-03-23T08:33:23;96861.28;;;11.04
24201;BMP280;2801;50.972;7.856;2024-03-23T08:38:19;96858.56;;;10.64
24201;BMP280;2801;50.972;7.856;2024-03-23T08:40:45;96859.84;;;9.86
24201;BMP280;2801;50.972;7.856;2024-03-23T08:43:12;96875.88;;;9.62
24201;BMP280;2801;50.972;7.856;2024-03-23T08:45:38;96872.94;;;9.55
24201;BMP280;2801;50.972;7.856;2024-03-23T08:48:04;96878.69;;;9.78
24201;BMP280;2801;50.972;7.856;2024-03-23T08:50:31;96878.47;;;9.71
24201;BMP280;2801;50.972;7.856;2024-03-23T08:52:57;96873.06;;;9.59
24201;BMP280;2801;50.972;7.856;2024-03-23T08:55:23;96873.63;;;9.64
24201;BMP280;2801;50.972;7.856;2024-03-23T08:57:49;96872.66;;;9.69
24201;BMP280;2801;50.972;7.856;2024-03-23T09:00:15;96877.78;;;9.74
24201;BMP280;2801;50.972;7.856;2024-03-23T09:02:42;96884.88;;;9.58
24201;BMP280;2801;50.972;7.856;2024-03-23T09:05:08;96882.19;;;9.25
24201;BMP280;2801;50.972;7.856;2024-03-23T09:07:34;96878.34;;;8.94
24201;BMP280;2801;50.972;7.856;2024-03-23T09:10:00;96878.41;;;8.65
24201;BMP280;2801;50.972;7.856;2024-03-23T09:12:28;96884.72;;;8.31
24201;BMP280;2801;50.972;7.856;2024-03-23T09:14:54;96881.81;;;8.07
24201;BMP280;2801;50.972;7.856;2024-03-23T09:17:20;96883.06;;;8.10
24201;BMP280;2801;50.972;7.856;2024-03-23T09:19:46;96882.28;;;8.09
24201;BMP280;2801;50.972;7.856;2024-03-23T09:22:13;96877.84;;;8.22
24201;BMP280;2801;50.972;7.856;2024-03-23T09:24:39;96870.22;;;8.41
24201;BMP280;2801;50.972;7.856;2024-03-23T09:27:05;96868.03;;;8.43
24201;BMP280;2801;50.972;7.856;2024-03-23T09:29:33;96871.78;;;8.42
24201;BMP280;2801;50.972;7.856;2024-03-23T09:31:59;96863.25;;;8.48
24201;BMP280;2801;50.972;7.856;2024-03-23T09:34:25;96853.50;;;8.52
24201;BMP280;2801;50.972;7.856;2024-03-23T09:36:52;96861.97;;;8.54
24201;BMP280;2801;50.972;7.856;2024-03-23T09:39:18;96853.84;;;8.92
24201;BMP280;2801;50.972;7.856;2024-03-23T09:41:45;96851.63;;;9.14
24201;BMP280;2801;50.972;7.856;2024-03-23T09:44:12;96847.72;;;9.44
24201;BMP280;2801;50.972;7.856;2024-03-23T09:46:38;96843.56;;;9.91
24201;BMP280;2801;50.972;7.856;2024-03-23T09:49:07;96839.13;;;10.55
24201;BMP280;2801;50.972;7.856;2024-03-23T09:51:37;96840.06;;;10.35
24201;BMP280;2801;50.972;7.856;2024-03-23T09:54:03;96844.34;;;9.92
24201;BMP280;2801;50.972;7.856;2024-03-23T09:56:29;96842.19;;;9.29
24201;BMP280;2801;50.972;7.856;2024-03-23T09:59:02;96851.81;;;8.68
24201;BMP280;2801;50.972;7.856;2024-03-23T10:01:30;96845.78;;;8.30
24201;BMP280;2801;50.972;7.856;2024-03-23T10:03:57;96855.56;;;8.09
24201;BMP280;2801;50.972;7.856;2024-03-23T10:06:23;96850.25;;;8.09
24201;BMP280;2801;50.972;7.856;2024-03-23T10:08:53;96841.63;;;8.41
24201;BMP280;2801;50.972;7.856;2024-03-23T10:11:21;96846.19;;;9.23
24201;BMP280;2801;50.972;7.856;2024-03-23T10:13:47;96834.44;;;9.80
24201;BMP280;2801;50.972;7.856;2024-03-23T10:16:22;96829.28;;;9.75
24201;BMP280;2801;50.972;7.856;2024-03-23T10:18:49;96843.47;;;9.43
24201;BMP280;2801;50.972;7.856;2024-03-23T10:21:16;96847.53;;;9.29
24201;BMP280;2801;50.972;7.856;2024-03-23T10:23:44;96835.66;;;9.83
24201;BMP280;2801;50.972;7.856;2024-03-23T10:26:21;96837.47;;;10.51
24201;BMP280;2801;50.972;7.856;2024-03-23T10:28:57;96828.06;;;11.08
24201;BMP280;2801;50.972;7.856;2024-03-23T10:31:28;96804.50;;;11.02
24201;BMP280;2801;50.972;7.856;2024-03-23T10:33:54;96816.19;;;10.82
24201;BMP280;2801;50.972;7.856;2024-03-23T10:36:22;96811.13;;;10.41
24201;BMP280;2801;50.972;7.856;2024-03-23T10:38:51;96822.72;;;10.57
24201;BMP280;2801;50.972;7.856;2024-03-23T10:41:18;96810.31;;;11.32
24201;BMP280;2801;50.972;7.856;2024-03-23T10:43:49;96806.25;;;12.12
24201;BMP280;2801;50.972;7.856;2024-03-23T10:46:15;96800.34;;;12.06
24201;BMP280;2801;50.972;7.856;2024-03-23T10:48:43;96809.63;;;11.07
24201;BMP280;2801;50.972;7.856;2024-03-23T10:51:10;96819.63;;;10.19
24201;BMP280;2801;50.972;7.856;2024-03-23T10:53:37;96824.69;;;9.64
24201;BMP280;2801;50.972;7.856;2024-03-23T10:56:04;96837.13;;;9.15
24201;BMP280;2801;50.972;7.856;2024-03-23T10:58:39;96845.09;;;8.83
24201;BMP280;2801;50.972;7.856;2024-03-23T11:01:06;96842.69;;;8.49
24201;BMP280;2801;50.972;7.856;2024-03-23T11:03:38;96836.91;;;8.09
24201;BMP280;2801;50.972;7.856;2024-03-23T11:06:06;96839.78;;;7.96
24201;BMP280;2801;50.972;7.856;2024-03-23T11:08:39;96841.06;;;7.90
24201;BMP280;2801;50.972;7.856;2024-03-23T11:11:21;96837.31;;;8.20
24201;BMP280;2801;50.972;7.856;2024-03-23T11:13:50;96829.69;;;8.39
24201;BMP280;2801;50.972;7.856;2024-03-23T11:16:27;96827.72;;;8.77
24201;BMP280;2801;50.972;7.856;2024-03-23T11:19:35;96816.94;;;8.65
24201;BMP280;2801;50.972;7.856;2024-03-23T11:22:04;96815.72;;;8.62
24201;BMP280;2801;50.972;7.856;2024-03-23T11:24:31;96818.19;;;8.88
24201;BMP280;2801;50.972;7.856;2024-03-23T11:27:00;96809.78;;;9.30
24201;BMP280;2801;50.972;7.856;2024-03-23T11:29:27;96795.78;;;9.45
24201;BMP280;2801;50.972;7.856;2024-03-23T11:31:56;96808.00;;;9.34
24201;BMP280;2801;50.972;7.856;2024-03-23T11:34:22;96806.16;;;9.14
24201;BMP280;2801;50.972;7.856;2024-03-23T11:36:48;96829.22;;;8.86
24201;BMP280;2801;50.972;7.856;2024-03-23T11:39:17;96840.75;;;8.58
24201;BMP280;2801;50.972;7.856;2024-03-23T11:41:53;96877.47;;;7.94
24201;BMP280;2801;50.972;7.856;2024-03-23T11:44:25;96893.91;;;7.50
24201;BMP280;2801;50.972;7.856;2024-03-23T11:46:54;96904.75;;;6.94
24201;BMP280;2801;50.972;7.856;2024-03-23T11:49:32;96925.16;;;6.42
24201;BMP280;2801;50.972;7.856;2024-03-23T11:52:00;96934.44;;;6.06
24201;BMP280;2801;50.972;7.856;2024-03-23T11:54:27;96922.47;;;5.73
24201;BMP280;2801;50.972;7.856;2024-03-23T11:57:00;96913.16;;;5.53
24201;BMP280;2801;50.972;7.856;2024-03-23T11:59:38;96910.88;;;5.69
24201;BMP280;2801;50.972;7.856;2024-03-23T12:02:10;96905.75;;;5.94
24201;BMP280;2801;50.972;7.856;2024-03-23T12:04:38;96906.38;;;6.39
24201;BMP280;2801;50.972;7.856;2024-03-23T12:07:21;96895.31;;;6.71
24201;BMP280;2801;50.972;7.856;2024-03-23T12:10:10;96900.69;;;6.88
24201;BMP280;2801;50.972;7.856;2024-03-23T12:12:36;96900.69;;;6.88
24201;BMP280;2801;50.972;7.856;2024-03-23T12:15:08;96908.63;;;6.62
24201;BMP280;2801;50.972;7.856;2024-03-23T12:17:35;96930.69;;;6.46
24201;BMP280;2801;50.972;7.856;2024-03-23T12:20:01;96935.78;;;6.25
24201;BMP280;2801;50.972;7.856;2024-03-23T12:22:28;96933.81;;;6.09
24201;BMP280;2801;50.972;7.856;2024-03-23T12:24:56;96921.44;;;6.04
24201;BMP280;2801;50.972;7.856;2024-03-23T12:27:22;96923.41;;;5.90
24201;BMP280;2801;50.972;7.856;2024-03-23T12:29:49;96909.53;;;5.80
24201;BMP280;2801;50.972;7.856;2024-03-23T12:32:16;96907.81;;;5.75
24201;BMP280;2801;50.972;7.856;2024-03-23T12:34:42;96895.88;;;5.64
24201;BMP280;2801;50.972;7.856;2024-03-23T12:37:08;96891.63;;;5.63
24201;BMP280;2801;50.972;7.856;2024-03-23T12:39:35;96900.22;;;5.60
24201;BMP280;2801;50.972;7.856;2024-03-23T12:42:02;96903.78;;;5.56
24201;BMP280;2801;50.972;7.856;2024-03-23T12:44:31;96908.75;;;5.49
24201;BMP280;2801;50.972;7.856;2024-03-23T12:46:57;96902.31;;;5.41
24201;BMP280;2801;50.972;7.856;2024-03-23T12:49:24;96901.63;;;5.36
24201;BMP280;2801;50.972;7.856;2024-03-23T12:51:56;96910.66;;;5.35
24201;BMP280;2801;50.972;7.856;2024-03-23T12:54:23;96916.91;;;5.30
24201;BMP280;2801;50.972;7.856;2024-03-23T12:56:49;96907.34;;;5.29
24201;BMP280;2801;50.972;7.856;2024-03-23T12:59:16;96908.28;;;5.25
24201;BMP280;2801;50.972;7.856;2024-03-23T13:01:45;96909.72;;;5.31
24201;BMP280;2801;50.972;7.856;2024-03-23T13:04:12;96913.69;;;5.42
24201;BMP280;2801;50.972;7.856;2024-03-23T13:06:38;96909.72;;;5.53
24201;BMP280;2801;50.972;7.856;2024-03-23T13:09:04;96912.00;;;5.68
24201;BMP280;2801;50.972;7.856;2024-03-23T13:11:31;96914.34;;;5.69
24201;BMP280;2801;50.972;7.856;2024-03-23T13:13:58;96917.97;;;5.73
24201;BMP280;2801;50.972;7.856;2024-03-23T13:16:24;96897.03;;;5.80
24201;BMP280;2801;50.972;7.856;2024-03-23T13:18:50;96884.03;;;5.79
24201;BMP280;2801;50.972;7.856;2024-03-23T13:21:17;96884.34;;;5.77
24201;BMP280;2801;50.972;7.856;2024-03-23T13:23:47;96896.22;;;5.71
24201;BMP280;2801;50.972;7.856;2024-03-23T13:26:14;96900.88;;;5.66
24201;BMP280;2801;50.972;7.856;2024-03-23T13:28:40;96908.13;;;5.74
24201;BMP280;2801;50.972;7.856;2024-03-23T13:31:07;96898.91;;;5.80
24201;BMP280;2801;50.972;7.856;2024-03-23T13:33:34;96904.00;;;5.90
24201;BMP280;2801;50.972;7.856;2024-03-23T13:36:00;96908.63;;;6.06
24201;BMP280;2801;50.972;7.856;2024-03-23T13:38:27;96905.34;;;6.09
24201;BMP280;2801;50.972;7.856;2024-03-23T13:40:59;96900.34;;;6.16
24201;BMP280;2801;50.972;7.856;2024-03-23T13:43:27;96896.94;;;6.24
24201;BMP280;2801;50.972;7.856;2024-03-23T13:45:59;96894.63;;;6.40
24201;BMP280;2801;50.972;7.856;2024-03-23T13:48:27;96898.91;;;6.58
24201;BMP280;2801;50.972;7.856;2024-03-23T13:51:01;96890.00;;;6.79
24201;BMP280;2801;50.972;7.856;2024-03-23T13:53:28;96889.56;;;7.11
24201;BMP280;2801;50.972;7.856;2024-03-23T13:55:54;96872.59;;;7.33
24201;BMP280;2801;50.972;7.856;2024-03-23T13:58:21;96864.91;;;7.48
24201;BMP280;2801;50.972;7.856;2024-03-23T14:00:48;96864.41;;;7.55
24201;BMP280;2801;50.972;7.856;2024-03-23T14:03:14;96865.34;;;7.59
24201;BMP280;2801;50.972;7.856;2024-03-23T14:05:41;96861.06;;;7.66
24201;BMP280;2801;50.972;7.856;2024-03-23T14:08:08;96864.34;;;7.72
24201;BMP280;2801;50.972;7.856;2024-03-23T14:10:36;96855.72;;;7.75
24201;BMP280;2801;50.972;7.856;2024-03-23T14:13:03;96855.22;;;7.82
24201;BMP280;2801;50.972;7.856;2024-03-23T14:15:30;96844.84;;;7.89
24201;BMP280;2801;50.972;7.856;2024-03-23T14:17:56;96838.53;;;7.93
24201;BMP280;2801;50.972;7.856;2024-03-23T14:20:23;96842.63;;;7.91
24201;BMP280;2801;50.972;7.856;2024-03-23T14:22:50;96841.81;;;7.99
24201;BMP280;2801;50.972;7.856;2024-03-23T14:25:16;96838.78;;;8.09
24201;BMP280;2801;50.972;7.856;2024-03-23T14:27:46;96843.03;;;8.10
24201;BMP280;2801;50.972;7.856;2024-03-23T14:30:13;96841.91;;;8.11
24201;BMP280;2801;50.972;7.856;2024-03-23T14:32:40;96830.00;;;8.08
24201;BMP280;2801;50.972;7.856;2024-03-23T14:35:07;96835.97;;;8.05
24201;BMP280;2801;50.972;7.856;2024-03-23T14:37:39;96832.38;;;8.01
24201;BMP280;2801;50.972;7.856;2024-03-23T14:40:08;96820.78;;;7.97
24201;BMP280;2801;50.972;7.856;2024-03-23T14:42:35;96831.19;;;8.19
24201;BMP280;2801;50.972;7.856;2024-03-23T14:45:01;96816.47;;;8.42
24201;BMP280;2801;50.972;7.856;2024-03-23T14:47:28;96817.19;;;8.51
24201;BMP280;2801;50.972;7.856;2024-03-23T14:49:54;96816.81;;;8.61
24201;BMP280;2801;50.972;7.856;2024-03-23T14:52:21;96813.19;;;8.66
24201;BMP280;2801;50.972;7.856;2024-03-23T14:54:47;96824.84;;;8.61
24201;BMP280;2801;50.972;7.856;2024-03-23T14:57:13;96812.78;;;8.55
24201;BMP280;2801;50.972;7.856;2024-03-23T14:59:40;96811.81;;;8.31
24201;BMP280;2801;50.972;7.856;2024-03-23T15:02:09;96819.59;;;8.15
24201;BMP280;2801;50.972;7.856;2024-03-23T15:04:35;96814.84;;;7.92
24201;BMP280;2801;50.972;7.856;2024-03-23T15:07:02;96813.53;;;7.68
24201;BMP280;2801;50.972;7.856;2024-03-23T15:09:28;96816.72;;;7.53
24201;BMP280;2801;50.972;7.856;2024-03-23T15:11:55;96826.78;;;7.39
24201;BMP280;2801;50.972;7.856;2024-03-23T15:14:23;96845.94;;;7.24
24201;BMP280;2801;50.972;7.856;2024-03-23T15:16:50;96839.22;;;7.01
24201;BMP280;2801;50.972;7.856;2024-03-23T15:19:18;96832.50;;;6.70
24201;BMP280;2801;50.972;7.856;2024-03-23T15:21:45;96833.25;;;6.53
24201;BMP280;2801;50.972;7.856;2024-03-23T15:24:11;96836.84;;;6.40
24201;BMP280;2801;50.972;7.856;2024-03-23T15:26:38;96827.09;;;6.27
24201;BMP280;2801;50.972;7.856;2024-03-23T15:29:04;96833.06;;;6.24
24201;BMP280;2801;50.972;7.856;2024-03-23T15:31:38;96821.16;;;6.13
24201;BMP280;2801;50.972;7.856;2024-03-23T15:34:06;96823.00;;;6.13